Key Field
KMEI : now visible

Airfield :











YOU CAN JOIN US ON...

 
LOGIN :

Register | Disclaimer

   EN    FR    IT 

 









Legend :    VFR   Marginal VFR   IFR   Intensive IFR   Very Intensive IFR
Visi :
Ceiling :
>= 8 km
>= 3000ft
5 to 8 km
1000 to 3000 ft
1500m to 5 km
500 to 1000 ft
800 to 1500m
200 to 500 ft
< 800m
< 200 ft
Symbols :   Thunderstorms  Fog  Heavy snow  Heavy precipitations  Wind > 20 kt






- Airport Elevation : 297 ft
- IATA code : MEI


KMEI - Key Field

CURRENT METAR :
  • 141907Z 27006KT 10SM VCTS SCT039 32/23 A2991 RMK AO2 LTG DSNT NE AND SW AND NW T03170233

EXPIRED METARs :
  • 141858Z 25007KT 10SM BKN037 BKN044 32/23 A2992 RMK AO2 LTG DSNT SW AND W SLP126 T03220233
  • 141758Z 24005KT 10SM SCT036 BKN049 BKN060 32/23 A2994 RMK AO2 SLP134 T03170233 10328 20239 58009
  • 141744Z VRB05KT 10SM FEW028 SCT034 BKN060 33/24 A2995 RMK AO2 T03280244
  • 141725Z 00000KT 10SM BKN029 32/24 A2995 RMK AO2 T03220239
  • 141658Z 23006KT 10SM SCT026 31/24 A2996 RMK AO2 SLP139 T03110239
  • 141646Z 10SM SCT024 BKN030 31/24 A2996 RMK AO2 T03110239

TAF KMEI
Valid from the 14 at 18:00 until the 15 at 18:00 UTC


141759Z 1418/1518 26005KT P6SM VCTS BKN030CB BKN050
FM141900 30015G25KT 4SM TSRA BR BKN025CB BKN035 OVC050
FM142100 30005KT P6SM -RA VCTS BKN035CB OVC100
FM142300 VRB03KT P6SM VCSH FEW035 BKN100
FM150100 00000KT P6SM SCT100
FM151100 00000KT P6SM SCT015 BKN025
FM151600 34006KT P6SM SCT040
KZME FIR / North America



MET'MAP, your aeronautical weather chart ! - Copyright ORBIFLY December 2007 - Disclaimer

ORBIFLY MET'MAP TEAM :

Programming & Development : Alexandra Zaïnal
Concept & original design : Baudouin d'Aumeries
Assistance for programming : Marc-Olivier Méhu
Technical & hardware support : Manuel Goepfert

Contact : metmap@orbifly.com




SOURCES & CREDITS :

   NOAA       Earth
Advisory